Time;durP1;ratioP1;P1;durP2;ratioP2;P2;SDS_P1;SDS_P2;PMS_P1;PMS_P2;Temp;Humidity;BMP_temperature;BMP_pressure;BME280_temperature;BME280_humidity;BME280_pressure;Samples;Min_cycle;Max_cycle;Signal;HPM_P1;HPM_P2
2022/06/28 00:01:09;;;;;;;11.18;7.80;;;;;;;11.76;100.00;101894.38;5243840;28;20052;-71
2022/06/28 00:03:42;;;;;;;8.63;7.10;;;;;;;11.72;100.00;101898.22;5238582;28;20029;-71
2022/06/28 00:06:13;;;;;;;9.68;7.25;;;;;;;11.67;100.00;101895.81;5253006;28;20097;-71
2022/06/28 00:08:44;;;;;;;8.20;7.28;;;;;;;11.62;100.00;101883.69;5252407;28;20021;-71
2022/06/28 00:11:16;;;;;;;10.82;7.88;;;;;;;11.74;100.00;101889.13;5248835;28;20033;-72
2022/06/28 00:13:47;;;;;;;10.27;7.95;;;;;;;11.73;100.00;101894.56;5253089;28;20199;-71
2022/06/28 00:16:19;;;;;;;10.15;8.00;;;;;;;11.78;100.00;101887.13;5244704;28;20033;-71
2022/06/28 00:18:51;;;;;;;11.02;8.02;;;;;;;11.69;100.00;101891.22;5244526;28;20482;-71
2022/06/28 00:21:24;;;;;;;12.27;8.27;;;;;;;11.63;100.00;101886.28;5244279;28;20060;-70
2022/06/28 00:23:55;;;;;;;10.30;7.78;;;;;;;11.58;100.00;101891.94;5242472;28;20032;-71
2022/06/28 00:26:26;;;;;;;11.90;8.32;;;;;;;11.62;100.00;101891.72;5240302;28;20455;-71
2022/06/28 00:28:58;;;;;;;10.45;8.13;;;;;;;11.67;100.00;101901.16;5246278;28;20436;-71
2022/06/28 00:31:29;;;;;;;10.18;8.10;;;;;;;11.50;100.00;101896.88;5241971;28;20036;-71
2022/06/28 00:34:02;;;;;;;10.55;7.80;;;;;;;11.36;100.00;101892.44;5242352;28;20038;-72
2022/06/28 00:36:34;;;;;;;10.70;8.43;;;;;;;11.48;100.00;101904.16;5238856;28;20033;-71
2022/06/28 00:39:06;;;;;;;12.23;7.88;;;;;;;11.41;100.00;101900.16;5239532;28;20025;-71
2022/06/28 00:41:37;;;;;;;11.75;7.55;;;;;;;11.33;100.00;101894.44;5236897;28;20035;-72
2022/06/28 00:44:13;;;;;;;10.85;7.07;;;;;;;11.31;100.00;101899.91;5239192;28;20105;-71
2022/06/28 00:46:44;;;;;;;9.35;7.40;;;;;;;11.27;100.00;101900.16;5237262;28;20037;-71
2022/06/28 00:49:16;;;;;;;11.02;7.13;;;;;;;11.21;100.00;101906.75;5240251;28;20025;-72
2022/06/28 00:51:47;;;;;;;10.40;7.53;;;;;;;11.25;100.00;101902.06;5236968;28;20568;-71
2022/06/28 00:54:18;;;;;;;10.63;7.57;;;;;;;11.22;100.00;101908.47;5246888;28;20115;-71
2022/06/28 00:56:50;;;;;;;9.70;7.22;;;;;;;11.15;100.00;101899.13;5242264;28;20025;-71
2022/06/28 00:59:21;;;;;;;11.00;7.63;;;;;;;11.10;100.00;101895.88;5248235;28;20028;-71
2022/06/28 01:01:53;;;;;;;9.30;7.40;;;;;;;11.19;100.00;101903.31;5238467;28;20473;-71
2022/06/28 01:04:24;;;;;;;10.63;8.20;;;;;;;11.07;100.00;101904.94;5252862;28;20048;-71
2022/06/28 01:06:55;;;;;;;8.70;7.32;;;;;;;11.06;100.00;101907.69;5249292;28;20467;-71
2022/06/28 01:09:27;;;;;;;10.07;7.32;;;;;;;11.10;100.00;101906.56;5246335;28;20033;-71
2022/06/28 01:11:58;;;;;;;12.90;7.55;;;;;;;10.98;100.00;101905.50;5250944;28;20055;-71
2022/06/28 01:14:30;;;;;;;9.55;7.80;;;;;;;10.95;100.00;101905.69;5245556;28;20036;-71
2022/06/28 01:17:01;;;;;;;9.88;7.43;;;;;;;10.96;100.00;101908.25;5251549;28;20611;-71
2022/06/28 01:19:32;;;;;;;11.18;7.97;;;;;;;10.90;100.00;101897.09;5245365;28;20025;-71
2022/06/28 01:22:06;;;;;;;13.50;8.18;;;;;;;10.90;100.00;101905.13;5256229;28;20071;-71
2022/06/28 01:24:38;;;;;;;12.00;8.55;;;;;;;10.85;100.00;101910.72;5239370;28;20037;-72
2022/06/28 01:27:09;;;;;;;10.23;7.75;;;;;;;10.83;100.00;101909.09;5251548;28;20163;-71
2022/06/28 01:29:41;;;;;;;9.70;8.18;;;;;;;10.83;100.00;101917.09;5243846;28;20467;-71
2022/06/28 01:32:13;;;;;;;12.55;8.20;;;;;;;10.81;100.00;101911.84;5252917;28;20025;-71
2022/06/28 01:34:45;;;;;;;11.25;8.38;;;;;;;10.83;100.00;101912.63;5247114;28;20033;-71
2022/06/28 01:37:16;;;;;;;12.68;8.57;;;;;;;10.77;100.00;101918.34;5255029;28;20097;-71
2022/06/28 01:39:47;;;;;;;12.27;8.02;;;;;;;10.74;100.00;101916.72;5244304;28;20037;-72
2022/06/28 01:42:19;;;;;;;11.75;8.05;;;;;;;10.72;100.00;101920.41;5240865;28;20036;-71
2022/06/28 01:44:51;;;;;;;10.73;8.27;;;;;;;10.71;100.00;101914.22;5241467;28;20284;-71
2022/06/28 01:47:25;;;;;;;11.02;8.00;;;;;;;10.62;100.00;101919.25;5257296;28;20385;-71
2022/06/28 01:49:56;;;;;;;11.98;8.13;;;;;;;10.58;100.00;101929.25;5242468;28;20025;-72
2022/06/28 01:52:27;;;;;;;11.95;8.25;;;;;;;10.61;100.00;101925.56;5251069;28;20039;-71
2022/06/28 01:54:59;;;;;;;11.70;8.25;;;;;;;10.56;100.00;101929.34;5251468;28;20387;-71
2022/06/28 01:57:30;;;;;;;11.88;8.50;;;;;;;10.55;100.00;101926.78;5244727;28;20033;-71
2022/06/28 02:00:02;;;;;;;11.77;8.68;;;;;;;10.54;100.00;101933.06;5246853;28;20056;-71
2022/06/28 02:02:33;;;;;;;10.88;8.60;;;;;;;10.55;100.00;101924.13;5251282;28;20049;-71
2022/06/28 02:05:05;;;;;;;12.45;8.88;;;;;;;10.53;100.00;101928.69;5258106;28;20722;-71
2022/06/28 02:07:36;;;;;;;14.52;8.30;;;;;;;10.47;100.00;101929.03;5254829;28;20036;-71
2022/06/28 02:10:08;;;;;;;14.25;8.57;;;;;;;10.46;100.00;101927.31;5249038;28;20060;-71
2022/06/28 02:12:39;;;;;;;12.52;8.32;;;;;;;10.40;100.00;101929.38;5250435;28;20753;-72
2022/06/28 02:15:15;;;;;;;13.88;7.85;;;;;;;10.34;100.00;101931.56;5255780;28;20060;-71
2022/06/28 02:17:46;;;;;;;12.93;8.40;;;;;;;10.39;100.00;101933.03;5254685;28;20033;-71
2022/06/28 02:20:17;;;;;;;12.15;8.75;;;;;;;10.35;100.00;101933.25;5241271;28;20029;-72
2022/06/28 02:22:48;;;;;;;9.65;7.90;;;;;;;10.32;100.00;101938.81;5254427;28;20032;-71
2022/06/28 02:25:20;;;;;;;12.15;8.05;;;;;;;10.19;100.00;101936.78;5251391;28;20031;-71
2022/06/28 02:27:51;;;;;;;14.23;8.38;;;;;;;10.24;100.00;101941.88;5252278;28;20505;-71
2022/06/28 02:30:23;;;;;;;12.23;8.15;;;;;;;10.21;100.00;101953.56;5254579;28;20447;-71
2022/06/28 02:32:54;;;;;;;10.77;8.23;;;;;;;10.18;100.00;101952.88;5246036;28;20025;-71
2022/06/28 02:41:05;;;;;;;13.65;8.57;;;;;;;10.17;100.00;101960.03;5241452;28;20041;-71
2022/06/28 02:43:37;;;;;;;13.07;8.25;;;;;;;10.14;100.00;101964.66;5249358;28;20037;-71
2022/06/28 02:46:08;;;;;;;12.35;8.73;;;;;;;10.13;100.00;101965.63;5241887;28;20029;-71
2022/06/28 02:48:39;;;;;;;10.35;7.82;;;;;;;10.16;100.00;101970.78;5243275;28;20044;-71
2022/06/28 02:51:11;;;;;;;11.27;7.90;;;;;;;10.09;100.00;101980.09;5248690;28;20372;-71
2022/06/28 02:53:42;;;;;;;10.48;8.02;;;;;;;10.08;100.00;101965.88;5240076;28;20028;-71
2022/06/28 02:56:13;;;;;;;12.45;7.55;;;;;;;10.03;100.00;101970.63;5258646;28;20518;-72
2022/06/28 02:58:45;;;;;;;11.02;7.30;;;;;;;9.99;100.00;101982.38;5251682;28;20056;-71
2022/06/28 03:01:16;;;;;;;13.00;7.03;;;;;;;9.93;100.00;101988.06;5250772;28;20467;-71
2022/06/28 03:03:47;;;;;;;9.45;7.57;;;;;;;9.97;100.00;101982.50;5242415;28;20028;-71
2022/06/28 03:06:18;;;;;;;11.80;7.50;;;;;;;10.06;100.00;101988.25;5249359;28;20029;-71
2022/06/28 03:08:50;;;;;;;11.27;7.80;;;;;;;9.96;100.00;101986.09;5241010;28;20025;-71
2022/06/28 03:11:21;;;;;;;12.15;7.50;;;;;;;9.93;100.00;101991.59;5244977;28;20041;-71
2022/06/28 03:13:52;;;;;;;11.75;6.72;;;;;;;9.83;100.00;101990.38;5246198;28;20114;-71
2022/06/28 03:16:24;;;;;;;10.82;6.28;;;;;;;9.85;100.00;101987.63;5248706;28;20112;-71
2022/06/28 03:18:55;;;;;;;9.52;6.80;;;;;;;9.84;100.00;101994.78;5255859;28;20088;-71
2022/06/28 03:21:26;;;;;;;9.02;6.55;;;;;;;9.82;100.00;102010.84;5249990;28;20021;-71
2022/06/28 03:23:57;;;;;;;11.27;6.97;;;;;;;9.82;100.00;102002.84;5245766;28;20028;-71
2022/06/28 03:26:29;;;;;;;9.85;6.43;;;;;;;9.74;100.00;102002.41;5249063;28;20036;-71
2022/06/28 03:29:00;;;;;;;13.52;7.15;;;;;;;9.83;100.00;102003.69;5236041;28;20117;-72
2022/06/28 03:31:32;;;;;;;10.88;6.65;;;;;;;9.67;100.00;102006.34;5246949;28;20385;-71
2022/06/28 03:34:03;;;;;;;10.85;7.05;;;;;;;9.71;100.00;102007.91;5246489;28;20103;-71
2022/06/28 03:36:34;;;;;;;13.25;6.93;;;;;;;9.84;100.00;102008.09;5250548;28;20545;-71
2022/06/28 03:39:06;;;;;;;10.75;7.05;;;;;;;9.70;100.00;102007.97;5249841;28;20559;-71
2022/06/28 03:41:37;;;;;;;11.00;7.15;;;;;;;9.69;100.00;102009.78;5240660;28;20491;-71
2022/06/28 03:44:08;;;;;;;11.18;7.28;;;;;;;9.78;100.00;102013.78;5240424;28;20052;-71
2022/06/28 03:46:39;;;;;;;10.45;6.93;;;;;;;9.71;100.00;102020.38;5241076;28;20032;-71
2022/06/28 03:49:11;;;;;;;13.05;7.25;;;;;;;9.70;100.00;102026.63;5235982;28;20041;-71
2022/06/28 03:51:42;;;;;;;13.73;7.20;;;;;;;9.70;100.00;102019.50;5240576;28;20032;-71
2022/06/28 03:54:13;;;;;;;10.65;7.00;;;;;;;9.65;100.00;102024.22;5245083;28;20060;-71
2022/06/28 03:56:45;;;;;;;9.57;6.63;;;;;;;9.71;100.00;102012.38;5240278;28;20035;-71
2022/06/28 03:59:16;;;;;;;11.13;6.90;;;;;;;9.64;100.00;102010.97;5244861;28;20076;-71
2022/06/28 04:01:47;;;;;;;10.52;6.80;;;;;;;9.65;100.00;102012.72;5243920;28;20042;-71
2022/06/28 04:04:19;;;;;;;10.65;6.30;;;;;;;9.66;100.00;102017.09;5236942;28;20036;-72
2022/06/28 04:06:50;;;;;;;10.98;6.82;;;;;;;9.66;100.00;102019.75;5240243;28;20632;-71
2022/06/28 04:09:21;;;;;;;10.77;6.50;;;;;;;9.70;100.00;102018.63;5251965;28;20037;-71
2022/06/28 04:11:52;;;;;;;10.63;6.53;;;;;;;9.78;100.00;102021.78;5238725;28;20037;-71
2022/06/28 04:14:24;;;;;;;11.52;7.20;;;;;;;9.74;100.00;102023.75;5236513;28;20493;-71
2022/06/28 04:16:55;;;;;;;11.02;6.63;;;;;;;9.72;100.00;102017.63;5246271;28;20475;-71
2022/06/28 04:19:27;;;;;;;11.05;6.43;;;;;;;9.81;100.00;102021.59;5239721;28;20028;-71
2022/06/28 04:21:59;;;;;;;9.50;6.22;;;;;;;9.80;100.00;102023.41;5253444;28;20037;-72
2022/06/28 04:24:31;;;;;;;15.50;6.55;;;;;;;9.80;100.00;102025.22;5238996;28;20040;-71
2022/06/28 04:27:03;;;;;;;10.40;6.80;;;;;;;9.93;100.00;102023.59;5241814;28;20427;-71
2022/06/28 04:29:34;;;;;;;11.65;6.70;;;;;;;9.85;100.00;102024.94;5235209;28;20029;-71
2022/06/28 04:32:06;;;;;;;11.95;6.40;;;;;;;9.87;100.00;102023.91;5238453;28;20040;-71
2022/06/28 04:34:38;;;;;;;12.88;6.50;;;;;;;9.89;100.00;102029.16;5240758;28;20475;-71
2022/06/28 04:37:09;;;;;;;12.65;6.28;;;;;;;9.97;100.00;102029.59;5249411;28;20059;-71
2022/06/28 04:39:40;;;;;;;11.43;6.90;;;;;;;10.01;100.00;102028.50;5252399;28;20510;-71
2022/06/28 04:42:11;;;;;;;11.35;6.28;;;;;;;10.08;100.00;102018.34;5246977;28;20111;-71
2022/06/28 04:44:43;;;;;;;13.90;6.53;;;;;;;10.14;100.00;102020.66;5239593;28;20063;-71
2022/06/28 04:47:14;;;;;;;12.13;6.30;;;;;;;10.18;100.00;102019.53;5241602;28;20098;-71
2022/06/28 04:49:45;;;;;;;10.20;5.88;;;;;;;10.17;100.00;102017.84;5244135;28;20053;-71
2022/06/28 04:52:17;;;;;;;12.35;7.05;;;;;;;10.18;100.00;102025.75;5247842;28;20399;-71
2022/06/28 04:54:48;;;;;;;12.48;6.32;;;;;;;10.20;100.00;102023.88;5241469;28;20732;-71
2022/06/28 04:57:20;;;;;;;14.25;6.35;;;;;;;10.28;100.00;102033.22;5240648;28;20101;-71
2022/06/28 04:59:52;;;;;;;9.80;5.43;;;;;;;10.28;100.00;102034.09;5250322;28;20044;-71
2022/06/28 05:02:23;;;;;;;15.35;6.50;;;;;;;10.35;100.00;102023.97;5250718;28;20067;-71
2022/06/28 05:04:54;;;;;;;10.13;6.05;;;;;;;10.33;100.00;102031.19;5241798;28;20428;-71
2022/06/28 05:07:26;;;;;;;11.85;5.95;;;;;;;10.39;100.00;102037.06;5250064;28;20021;-71
2022/06/28 05:09:57;;;;;;;13.00;5.65;;;;;;;10.40;100.00;102035.25;5246865;28;20047;-72
2022/06/28 05:12:28;;;;;;;13.13;5.82;;;;;;;10.44;100.00;102039.47;5248804;28;20029;-72
2022/06/28 05:15:00;;;;;;;10.23;5.47;;;;;;;10.45;100.00;102034.97;5243678;28;20041;-71
2022/06/28 05:17:31;;;;;;;11.93;5.63;;;;;;;10.53;100.00;102043.44;5250176;28;20033;-71
2022/06/28 05:20:03;;;;;;;11.88;5.18;;;;;;;10.54;100.00;102039.78;5253392;28;20032;-72
2022/06/28 05:22:34;;;;;;;9.45;5.10;;;;;;;10.62;100.00;102029.53;5242769;28;20518;-71
2022/06/28 05:25:06;;;;;;;11.80;5.60;;;;;;;10.64;100.00;102032.13;5245632;28;20040;-71
2022/06/28 05:27:37;;;;;;;9.43;4.75;;;;;;;10.71;100.00;102033.50;5246590;28;20033;-71
2022/06/28 05:30:09;;;;;;;14.23;5.15;;;;;;;10.78;100.00;102033.03;5250840;28;20518;-72
2022/06/28 05:32:40;;;;;;;14.43;5.28;;;;;;;10.79;100.00;102029.41;5253663;28;20620;-71
2022/06/28 05:35:12;;;;;;;11.68;5.28;;;;;;;10.85;100.00;102030.00;5250287;28;20037;-72
2022/06/28 05:37:43;;;;;;;8.63;4.78;;;;;;;10.93;100.00;102031.28;5245833;28;20091;-71
2022/06/28 05:40:14;;;;;;;12.40;4.90;;;;;;;10.95;100.00;102028.53;5250126;28;20024;-71
2022/06/28 05:42:45;;;;;;;11.02;4.43;;;;;;;11.02;100.00;102019.19;5238441;28;20033;-71
2022/06/28 05:45:17;;;;;;;11.68;4.53;;;;;;;11.14;100.00;102015.81;5242743;28;20028;-71
2022/06/28 05:47:48;;;;;;;11.13;3.92;;;;;;;11.15;100.00;102022.84;5245703;28;20094;-71
2022/06/28 05:50:19;;;;;;;13.23;4.28;;;;;;;11.17;100.00;102017.41;5244878;28;20079;-71
2022/06/28 05:52:51;;;;;;;13.05;3.90;;;;;;;11.24;100.00;102017.88;5245926;28;20036;-71
2022/06/28 05:55:22;;;;;;;12.75;3.65;;;;;;;11.30;100.00;102017.53;5246365;28;20579;-70
2022/06/28 05:57:55;;;;;;;12.88;4.07;;;;;;;11.38;100.00;102007.25;5247233;28;20112;-71
2022/06/28 06:00:26;;;;;;;11.82;3.45;;;;;;;11.41;100.00;102004.38;5253184;28;20026;-71
2022/06/28 06:02:57;;;;;;;14.27;3.88;;;;;;;11.47;100.00;102004.00;5241027;28;20361;-72
2022/06/28 06:05:29;;;;;;;14.80;4.07;;;;;;;11.62;100.00;102009.34;5249733;28;20025;-71
2022/06/28 06:08:00;;;;;;;10.52;3.70;;;;;;;11.64;100.00;102005.63;5247850;28;20056;-71
2022/06/28 06:10:31;;;;;;;12.82;4.22;;;;;;;11.68;100.00;102017.00;5255505;28;20029;-71
2022/06/28 06:13:03;;;;;;;12.90;4.53;;;;;;;11.82;100.00;102016.97;5242640;28;20112;-71
2022/06/28 06:15:35;;;;;;;8.13;4.28;;;;;;;11.91;100.00;102021.78;5244779;28;20021;-71
2022/06/28 06:18:07;;;;;;;17.33;5.07;;;;;;;12.00;100.00;102023.00;5250771;28;20159;-71
2022/06/28 06:20:38;;;;;;;12.30;3.88;;;;;;;12.05;100.00;102014.69;5250572;28;20041;-71
2022/06/28 06:23:09;;;;;;;12.38;3.85;;;;;;;12.12;100.00;102022.22;5241809;28;20466;-71
2022/06/28 06:25:40;;;;;;;10.18;4.03;;;;;;;12.23;100.00;102026.03;5244729;28;20040;-71
2022/06/28 06:28:12;;;;;;;12.10;3.70;;;;;;;12.29;100.00;102022.94;5242888;28;20105;-71
2022/06/28 06:30:43;;;;;;;14.88;3.90;;;;;;;12.37;100.00;102031.34;5243790;28;20053;-70
2022/06/28 06:33:15;;;;;;;10.52;3.08;;;;;;;12.48;100.00;102030.63;5243134;28;20029;-71
2022/06/28 06:35:46;;;;;;;11.02;3.40;;;;;;;12.62;100.00;102035.97;5239592;28;20495;-71
2022/06/28 06:38:17;;;;;;;9.98;3.20;;;;;;;12.68;100.00;102030.19;5234325;28;20550;-71
2022/06/28 06:40:48;;;;;;;11.15;3.60;;;;;;;12.80;100.00;102033.88;5243874;28;20454;-71
2022/06/28 06:43:20;;;;;;;10.00;2.95;;;;;;;12.86;100.00;102046.84;5243530;28;20025;-72
2022/06/28 06:45:51;;;;;;;12.85;3.28;;;;;;;13.03;100.00;102039.50;5246894;28;20029;-71
2022/06/28 06:48:23;;;;;;;14.55;3.33;;;;;;;13.14;100.00;102048.53;5242325;28;20469;-71
2022/06/28 06:50:54;;;;;;;11.23;3.17;;;;;;;13.21;100.00;102040.06;5244016;28;20549;-71
2022/06/28 06:53:28;;;;;;;8.55;3.28;;;;;;;13.22;100.00;102045.31;5247080;28;20024;-71
2022/06/28 06:55:59;;;;;;;7.30;2.20;;;;;;;13.33;100.00;102042.78;5245735;28;20041;-72
2022/06/28 06:58:30;;;;;;;11.65;2.90;;;;;;;13.40;100.00;102050.41;5242678;28;21063;-71
2022/06/28 07:01:02;;;;;;;7.75;2.20;;;;;;;13.50;100.00;102052.34;5243415;28;20033;-71
2022/06/28 07:03:34;;;;;;;9.00;2.22;;;;;;;13.64;100.00;102056.75;5245271;28;20033;-71
2022/06/28 07:06:05;;;;;;;12.20;2.40;;;;;;;13.69;100.00;102045.69;5245862;28;20025;-71
2022/06/28 07:08:36;;;;;;;7.50;2.22;;;;;;;13.77;100.00;102051.38;5239878;28;20048;-71
2022/06/28 07:11:08;;;;;;;11.02;1.95;;;;;;;13.82;100.00;102054.56;5245912;28;20032;-71
2022/06/28 07:13:39;;;;;;;8.50;2.25;;;;;;;13.92;100.00;102055.66;5244954;28;20029;-71
2022/06/28 07:16:11;;;;;;;10.23;2.42;;;;;;;14.14;100.00;102054.09;5244164;28;20430;-71
2022/06/28 07:18:43;;;;;;;10.45;3.17;;;;;;;14.19;100.00;102053.75;5242710;28;20040;-71
2022/06/28 07:21:14;;;;;;;8.70;2.42;;;;;;;14.29;100.00;102049.47;5243936;28;20031;-71
2022/06/28 07:23:45;;;;;;;7.28;2.40;;;;;;;14.42;100.00;102046.72;5243599;28;20033;-71
2022/06/28 07:26:18;;;;;;;8.30;2.15;;;;;;;14.40;100.00;102043.28;5246229;28;20032;-71
2022/06/28 07:28:49;;;;;;;14.00;3.13;;;;;;;14.58;100.00;102052.69;5243858;28;20036;-71
2022/06/28 07:31:20;;;;;;;9.75;2.60;;;;;;;14.59;100.00;102046.34;5245445;28;20032;-71
2022/06/28 07:33:52;;;;;;;10.32;2.40;;;;;;;14.69;100.00;102050.06;5242350;28;20021;-71
2022/06/28 07:36:24;;;;;;;8.18;2.40;;;;;;;14.83;100.00;102046.34;5242818;28;20044;-71
2022/06/28 07:38:55;;;;;;;8.73;2.47;;;;;;;14.92;100.00;102046.63;5250261;28;20156;-71
2022/06/28 07:41:26;;;;;;;10.82;2.40;;;;;;;15.00;100.00;102047.75;5247540;28;20090;-71
2022/06/28 07:43:58;;;;;;;9.85;2.70;;;;;;;15.09;100.00;102047.06;5249715;28;20036;-71
2022/06/28 07:46:29;;;;;;;7.63;2.28;;;;;;;15.09;100.00;102046.19;5250875;28;20021;-71
2022/06/28 07:49:00;;;;;;;10.57;2.10;;;;;;;15.22;100.00;102049.66;5248469;28;20031;-71
2022/06/28 07:54:21;;;;;;;7.00;2.25;;;;;;;15.48;99.78;102053.03;5248758;28;20072;-70
2022/06/28 07:56:53;;;;;;;6.38;2.10;;;;;;;15.60;100.00;102053.03;5246135;28;20139;-72
2022/06/28 07:59:24;;;;;;;7.25;2.13;;;;;;;15.76;99.54;102047.31;5246903;28;20838;-71
2022/06/28 08:01:55;;;;;;;8.57;2.08;;;;;;;15.71;98.22;102047.66;5236144;28;20036;-71
2022/06/28 08:04:26;;;;;;;7.93;1.90;;;;;;;15.81;97.33;102042.44;5231929;28;20044;-71
2022/06/28 08:06:59;;;;;;;7.47;2.10;;;;;;;15.82;95.08;102044.13;5236495;28;20057;-71
2022/06/28 08:09:30;;;;;;;5.82;1.50;;;;;;;16.01;93.54;102040.84;5243695;28;20100;-71
2022/06/28 08:12:01;;;;;;;7.10;1.52;;;;;;;16.14;92.65;102041.56;5241581;28;20026;-71
2022/06/28 08:14:33;;;;;;;6.53;2.08;;;;;;;16.14;91.79;102036.16;5240689;28;20209;-71
2022/06/28 08:17:04;;;;;;;5.10;1.30;;;;;;;16.21;90.35;102037.38;5240669;28;20090;-71
2022/06/28 08:19:36;;;;;;;7.68;1.50;;;;;;;16.22;90.47;102036.41;5240948;28;20033;-71
2022/06/28 08:22:07;;;;;;;8.10;1.40;;;;;;;16.27;92.74;102034.19;5243133;28;20378;-71
2022/06/28 08:24:39;;;;;;;6.47;1.33;;;;;;;16.50;92.76;102030.59;5240255;28;20032;-71
2022/06/28 08:27:10;;;;;;;7.45;1.75;;;;;;;16.44;89.16;102026.56;5242363;28;20107;-71
2022/06/28 08:29:42;;;;;;;6.40;1.60;;;;;;;16.50;90.26;102022.50;5240771;28;20131;-72
2022/06/28 08:32:16;;;;;;;9.82;1.70;;;;;;;16.56;87.88;102020.16;5242131;28;20491;-71
2022/06/28 08:34:47;;;;;;;6.20;1.55;;;;;;;16.63;89.56;102017.81;5239097;28;20353;-71
2022/06/28 08:37:19;;;;;;;6.72;1.20;;;;;;;16.73;87.15;102018.75;5239701;28;20502;-71
2022/06/28 08:39:50;;;;;;;4.97;1.60;;;;;;;16.89;86.56;102017.47;5243101;28;20025;-71
2022/06/28 08:42:26;;;;;;;5.28;1.20;;;;;;;16.91;86.60;102013.66;5243240;28;20525;-72
2022/06/28 08:45:01;;;;;;;6.88;1.10;;;;;;;17.08;86.54;102014.94;5241990;28;20039;-71
2022/06/28 08:47:34;;;;;;;5.15;1.17;;;;;;;17.17;82.55;102016.00;5244854;28;20621;-72
2022/06/28 08:50:17;;;;;;;7.40;0.98;;;;;;;17.01;82.84;102008.38;5240220;28;20029;-72
2022/06/28 08:52:49;;;;;;;5.43;1.00;;;;;;;17.22;80.14;102008.34;5241625;28;20024;-72
2022/06/28 08:55:21;;;;;;;5.25;1.20;;;;;;;17.33;79.53;102005.56;5243757;28;20071;-72
2022/06/28 08:57:55;;;;;;;5.68;1.30;;;;;;;17.55;80.57;102003.72;5240886;28;20064;-71
2022/06/28 09:00:27;;;;;;;5.03;1.08;;;;;;;17.54;81.52;102000.13;5243622;28;20497;-71
2022/06/28 09:02:58;;;;;;;5.10;1.00;;;;;;;17.64;82.43;102009.16;5241336;28;20033;-71
2022/06/28 09:05:29;;;;;;;4.70;0.98;;;;;;;17.52;81.00;102012.06;5242157;28;20028;-71
2022/06/28 09:08:01;;;;;;;4.85;1.23;;;;;;;17.75;79.35;102001.94;5238468;28;20140;-72
2022/06/28 09:10:32;;;;;;;4.13;1.00;;;;;;;17.85;78.83;101994.75;5238575;28;20120;-71
2022/06/28 09:13:05;;;;;;;4.25;0.90;;;;;;;17.85;77.61;102004.72;5234227;28;20055;-72
2022/06/28 09:15:49;;;;;;;3.97;1.00;;;;;;;17.87;80.46;101997.31;5234790;28;20517;-72
2022/06/28 09:18:24;;;;;;;3.97;0.88;;;;;;;18.10;76.11;101993.44;5238585;28;20047;-71
2022/06/28 09:20:57;;;;;;;3.55;0.80;;;;;;;18.18;73.57;101988.19;5233587;28;20079;-72
2022/06/28 09:23:31;;;;;;;4.43;0.90;;;;;;;18.35;75.29;101988.47;5234353;28;20029;-71
2022/06/28 09:26:06;;;;;;;3.30;0.80;;;;;;;18.28;69.21;101980.09;5242507;28;20041;-71
2022/06/28 09:28:46;;;;;;;6.18;1.08;;;;;;;18.48;72.94;101985.50;5245229;28;20013;-71
2022/06/28 09:31:26;;;;;;;4.93;1.20;;;;;;;18.57;77.52;101980.09;5244906;28;20475;-72
2022/06/28 09:34:00;;;;;;;3.75;0.85;;;;;;;18.69;71.68;101979.97;5247453;28;20565;-71
2022/06/28 09:36:35;;;;;;;4.07;1.08;;;;;;;18.89;72.69;101976.28;5247067;28;20118;-71
2022/06/28 09:39:27;;;;;;;3.05;0.90;;;;;;;18.87;79.63;101969.31;5246909;28;20075;-72
2022/06/28 09:42:05;;;;;;;3.20;0.70;;;;;;;18.79;70.02;101968.16;5242649;28;20037;-72
2022/06/28 09:44:36;;;;;;;5.78;1.20;;;;;;;19.11;73.66;101972.41;5240653;28;20037;-71
2022/06/28 09:47:11;;;;;;;5.97;1.00;;;;;;;19.18;70.19;101970.81;5240659;28;20052;-70
2022/06/28 09:49:47;;;;;;;5.07;0.90;;;;;;;19.31;72.06;101966.94;5245031;28;20065;-71
2022/06/28 09:52:26;;;;;;;3.50;0.73;;;;;;;19.40;69.41;101963.34;5233725;28;20025;-72
2022/06/28 09:54:59;;;;;;;4.88;0.82;;;;;;;19.36;71.04;101960.06;5242887;28;20403;-72
2022/06/28 09:57:33;;;;;;;5.20;1.10;;;;;;;19.44;68.80;101955.78;5245895;28;20068;-72
2022/06/28 10:00:05;;;;;;;4.03;1.15;;;;;;;19.38;68.81;101951.81;5245694;28;20094;-71
2022/06/28 10:02:37;;;;;;;5.18;1.08;;;;;;;19.35;66.73;101947.56;5241486;28;20436;-72
2022/06/28 10:05:09;;;;;;;5.15;0.80;;;;;;;19.46;66.21;101948.38;5240739;28;20026;-72
2022/06/28 10:07:41;;;;;;;4.40;1.02;;;;;;;19.47;67.04;101942.81;5241594;28;20021;-73
2022/06/28 10:10:14;;;;;;;7.20;1.00;;;;;;;19.53;66.77;101952.19;5242785;28;20059;-72
2022/06/28 10:15:37;;;;;;;3.17;0.80;;;;;;;19.75;66.72;101948.25;5234217;28;20041;-72
2022/06/28 10:18:10;;;;;;;5.80;0.88;;;;;;;19.78;67.23;101940.69;5240665;28;20490;-72
2022/06/28 10:20:43;;;;;;;3.75;1.13;;;;;;;19.73;64.80;101939.41;5234028;28;20144;-71
2022/06/28 10:23:37;;;;;;;4.93;1.00;;;;;;;19.72;74.67;101937.75;5231479;28;20291;-72
2022/06/28 10:26:14;;;;;;;7.43;1.42;;;;;;;19.77;69.88;101941.69;5241785;28;20138;-72
2022/06/28 10:29:02;;;;;;;5.03;1.05;;;;;;;20.03;70.77;101940.13;5243174;28;20390;-72
2022/06/28 10:31:36;;;;;;;4.13;0.95;;;;;;;20.26;67.42;101930.53;5233277;28;20692;-72
2022/06/28 10:34:10;;;;;;;5.43;1.02;;;;;;;20.17;62.33;101924.19;5233828;28;20033;-72
2022/06/28 10:36:55;;;;;;;3.97;1.30;;;;;;;20.36;64.75;101916.88;5234830;28;20102;-72
2022/06/28 10:39:29;;;;;;;4.78;0.95;;;;;;;20.46;65.83;101917.69;5234389;28;20028;-72
2022/06/28 10:42:00;;;;;;;4.28;1.10;;;;;;;20.61;66.58;101919.84;5240493;28;20123;-72
2022/06/28 10:44:31;;;;;;;3.90;1.00;;;;;;;20.63;65.64;101912.41;5235117;28;20033;-72
2022/06/28 10:47:16;;;;;;;5.53;1.25;;;;;;;20.67;64.35;101919.22;5236932;28;20847;-72
2022/06/28 10:49:57;;;;;;;4.03;1.13;;;;;;;20.63;64.67;101913.25;5232375;28;21064;-72
2022/06/28 10:52:33;;;;;;;4.20;0.80;;;;;;;20.82;64.18;101908.66;5229551;28;20033;-72
2022/06/28 10:55:05;;;;;;;3.15;0.90;;;;;;;20.70;59.84;101894.50;5229274;28;20056;-72
2022/06/28 10:57:39;;;;;;;6.13;0.90;;;;;;;20.67;60.80;101892.97;5240437;28;20029;-72
2022/06/28 11:00:20;;;;;;;4.82;1.00;;;;;;;20.79;60.89;101893.56;5232670;28;20025;-78
2022/06/28 11:02:51;;;;;;;4.18;1.08;;;;;;;20.65;58.09;101903.13;5247615;28;20104;-73
2022/06/28 11:05:44;;;;;;;4.53;0.73;;;;;;;20.75;61.80;101901.16;5234326;28;20029;-73
2022/06/28 11:08:29;;;;;;;3.35;1.13;;;;;;;21.13;65.63;101890.00;5236321;28;20550;-76
2022/06/28 11:11:02;;;;;;;2.90;0.70;;;;;;;21.15;60.52;101886.16;5240880;28;20025;-74
2022/06/28 11:13:33;;;;;;;5.57;0.95;;;;;;;21.30;57.72;101874.66;5245688;28;20074;-73
2022/06/28 11:16:05;;;;;;;3.28;0.65;;;;;;;21.51;61.33;101868.84;5241976;28;20036;-73
2022/06/28 11:18:36;;;;;;;4.30;0.60;;;;;;;21.62;58.03;101873.13;5240045;28;20483;-74
2022/06/28 11:21:07;;;;;;;3.63;0.70;;;;;;;21.71;57.06;101866.72;5246114;28;20025;-73
2022/06/28 11:23:40;;;;;;;4.05;0.95;;;;;;;21.89;59.25;101872.84;5235609;28;20029;-74
2022/06/28 11:29:05;;;;;;;3.30;0.80;;;;;;;22.04;57.32;101864.91;5236456;28;20203;-73
2022/06/28 11:31:42;;;;;;;3.03;0.98;;;;;;;22.05;56.25;101868.44;5240308;28;20033;-74
2022/06/28 11:34:13;;;;;;;3.17;0.82;;;;;;;21.80;53.15;101856.69;5242252;28;20405;-73
2022/06/28 11:36:45;;;;;;;3.97;0.80;;;;;;;22.02;54.67;101863.38;5236245;28;20032;-74
2022/06/28 11:39:18;;;;;;;4.38;0.70;;;;;;;21.54;53.10;101857.66;5238393;28;20029;-75
2022/06/28 11:41:52;;;;;;;4.18;0.82;;;;;;;21.75;54.03;101851.78;5237087;28;20036;-72
2022/06/28 11:44:24;;;;;;;3.33;0.70;;;;;;;21.69;53.42;101845.13;5232864;28;20051;-74
2022/06/28 11:46:55;;;;;;;3.30;0.70;;;;;;;22.18;55.87;101857.09;5236821;28;20061;-73
2022/06/28 11:49:32;;;;;;;2.78;0.80;;;;;;;22.29;56.83;101844.03;5241197;28;20074;-73
2022/06/28 11:52:03;;;;;;;5.53;1.20;;;;;;;22.25;54.09;101842.69;5238070;28;20035;-74
2022/06/28 11:54:35;;;;;;;5.53;0.80;;;;;;;22.39;56.25;101852.00;5239023;28;22386;-72